Dahlonega, Iowa
Current Conditions -  °F | °C
As of 5:53 AM on Saturday 25 Oct 2014 (Local Time) from KOTM Reporting Station
Clear Clear  
Wind Chill: 50°   Ceiling: Unl
Heat Index: 50°   Visibility: 8mi
Dew Point: 49°   Wind: 7mph
Humidity: 96%   Direction: 290°WNW
Pressure: 29.98"   Gusts: NA
Location:  41.0803°N, 92.3054°W
Report Text: KOTM 251053Z AUTO 29006KT 8SM CLR 10/09 A2998 RMK AO2 SLP151 T01000094
Loading
Personal Weather Stations






























Interactive Weather Map
Tropical Storm Tracking
New forecast layout! Learn more

10-Day Weather Forecast

Advertisements
Track Severe Weather on mobile